createdAt,value
2022-12-23T00:01:07.625Z,4.22
2022-12-23T00:03:35.554Z,2.83
2022-12-23T00:06:09.655Z,2.17
2022-12-23T00:08:37.471Z,2.70
2022-12-23T00:11:09.804Z,2.47
2022-12-23T00:13:56.014Z,3.30
2022-12-23T00:16:23.626Z,3.88
2022-12-23T00:18:52.302Z,2.75
2022-12-23T00:21:19.873Z,2.42
2022-12-23T00:23:50.041Z,2.67
2022-12-23T00:26:23.392Z,2.88
2022-12-23T00:28:51.444Z,4.07
2022-12-23T00:31:19.955Z,2.70
2022-12-23T00:33:49.692Z,4.30
2022-12-23T00:36:21.707Z,2.83
2022-12-23T00:39:08.655Z,3.33
2022-12-23T00:41:54.850Z,1.40
2022-12-23T00:44:22.390Z,2.42
2022-12-23T00:46:50.276Z,2.95
2022-12-23T00:49:38.218Z,1.48
2022-12-23T00:52:07.869Z,2.70
2022-12-23T00:54:35.372Z,5.45
2022-12-23T00:57:03.034Z,2.35
2022-12-23T00:59:30.428Z,4.07
2022-12-23T01:02:16.429Z,2.17
2022-12-23T01:05:03.016Z,6.85
2022-12-23T01:07:30.707Z,5.82
2022-12-23T01:09:58.265Z,2.47
2022-12-23T01:12:25.864Z,3.20
2022-12-23T01:14:53.311Z,4.35
2022-12-23T01:17:21.192Z,2.65
2022-12-23T01:19:48.811Z,4.75
2022-12-23T01:22:16.488Z,3.17
2022-12-23T01:24:44.065Z,2.47
2022-12-23T01:27:11.499Z,3.70
2022-12-23T01:29:38.956Z,3.38
2022-12-23T01:32:06.485Z,3.95
2022-12-23T01:34:37.004Z,2.92
2022-12-23T01:37:06.307Z,3.38
2022-12-23T01:39:33.889Z,1.58
2022-12-23T01:42:20.159Z,4.05
2022-12-23T01:45:02.325Z,1.80
2022-12-23T01:47:53.658Z,4.43
2022-12-23T01:50:31.255Z,2.60
2022-12-23T01:53:25.677Z,2.28
2022-12-23T01:56:02.466Z,3.20
2022-12-23T01:58:38.091Z,3.20
2022-12-23T02:01:25.867Z,1.95
2022-12-23T02:03:57.569Z,2.53
2022-12-23T02:06:55.960Z,2.42
2022-12-23T02:09:26.893Z,1.85
2022-12-23T02:15:18.878Z,3.00
2022-12-23T02:17:55.402Z,3.25
2022-12-23T02:20:44.947Z,1.75
2022-12-23T02:23:30.860Z,4.15
2022-12-23T02:25:58.236Z,6.25
2022-12-23T02:29:03.159Z,3.05
2022-12-23T02:31:48.176Z,2.10
2022-12-23T02:34:50.406Z,1.30
2022-12-23T02:37:35.949Z,3.55
2022-12-23T02:40:09.339Z,2.25
2022-12-23T02:43:00.909Z,3.00
2022-12-23T02:45:48.946Z,3.15
2022-12-23T02:48:24.339Z,2.35
2022-12-23T02:50:54.805Z,1.70
2022-12-23T02:53:31.900Z,2.72
2022-12-23T02:56:01.866Z,2.50
2022-12-23T02:58:37.343Z,2.15
2022-12-23T03:01:07.118Z,4.45
2022-12-23T03:03:36.772Z,1.83
2022-12-23T03:06:19.769Z,1.52
2022-12-23T03:08:49.692Z,3.42
2022-12-23T03:11:18.294Z,4.03
2022-12-23T03:14:04.285Z,1.80
2022-12-23T03:17:05.402Z,2.58
2022-12-23T03:19:32.870Z,1.73
2022-12-23T03:22:24.498Z,1.33
2022-12-23T03:25:05.543Z,4.30
2022-12-23T03:30:12.758Z,2.55
2022-12-23T03:32:51.933Z,1.95
2022-12-23T03:35:24.333Z,1.83
2022-12-23T03:37:54.514Z,0.93
2022-12-23T03:40:27.299Z,0.93
2022-12-23T03:43:28.412Z,2.08
2022-12-23T03:46:00.150Z,1.70
2022-12-23T03:48:43.679Z,1.42
2022-12-23T03:51:19.157Z,3.78
2022-12-23T03:53:54.468Z,1.27
2022-12-23T03:56:45.481Z,1.88
2022-12-23T03:59:25.780Z,2.78
2022-12-23T04:02:02.336Z,1.35
2022-12-23T04:04:39.345Z,2.42
2022-12-23T04:07:13.696Z,3.40
2022-12-23T04:09:42.377Z,2.13
2022-12-23T04:12:10.126Z,2.08
2022-12-23T04:14:45.254Z,1.80
2022-12-23T04:17:12.744Z,2.42
2022-12-23T04:19:40.270Z,2.63
2022-12-23T04:22:07.749Z,3.45
2022-12-23T04:24:35.252Z,1.30
2022-12-23T04:27:02.712Z,1.38
2022-12-23T04:29:30.119Z,1.27
2022-12-23T04:31:57.808Z,4.63
2022-12-23T04:34:25.279Z,1.60
2022-12-23T04:36:52.782Z,2.58
2022-12-23T04:39:20.275Z,0.90
2022-12-23T04:41:48.515Z,1.00
2022-12-23T04:44:15.991Z,1.40
2022-12-23T04:46:43.555Z,3.40
2022-12-23T04:49:11.165Z,1.40
2022-12-23T04:51:38.749Z,1.80
2022-12-23T04:54:06.258Z,4.15
2022-12-23T04:56:33.756Z,1.40
2022-12-23T04:59:02.395Z,0.82
2022-12-23T05:01:30.113Z,1.40
2022-12-23T05:03:57.766Z,1.05
2022-12-23T05:06:25.234Z,0.50
2022-12-23T05:08:52.730Z,2.60
2022-12-23T05:11:20.186Z,0.65
2022-12-23T05:13:47.667Z,2.05
2022-12-23T05:16:15.223Z,1.17
2022-12-23T05:18:42.789Z,0.90
2022-12-23T05:21:10.403Z,1.00
2022-12-23T05:23:38.315Z,1.63
2022-12-23T05:26:05.784Z,0.90
2022-12-23T05:28:33.367Z,1.65
2022-12-23T05:31:02.932Z,1.13
2022-12-23T05:33:30.631Z,1.55
2022-12-23T05:35:58.817Z,3.25
2022-12-23T05:38:26.684Z,2.13
2022-12-23T05:40:54.326Z,0.68
2022-12-23T05:43:22.535Z,1.63
2022-12-23T05:45:51.087Z,1.45
2022-12-23T05:48:18.688Z,1.33
2022-12-23T05:50:49.864Z,1.27
2022-12-23T05:53:17.539Z,1.42
2022-12-23T05:55:45.007Z,1.77
2022-12-23T05:58:12.593Z,3.65
2022-12-23T06:00:40.100Z,3.03
2022-12-23T06:03:07.730Z,1.90
2022-12-23T06:05:37.731Z,1.27
2022-12-23T06:08:05.855Z,3.65
2022-12-23T06:10:33.237Z,2.30
2022-12-23T06:13:00.719Z,2.78
2022-12-23T06:15:28.325Z,1.58
2022-12-23T06:17:56.172Z,2.10
2022-12-23T06:20:23.575Z,1.00
2022-12-23T06:22:51.131Z,1.85
2022-12-23T06:25:18.595Z,2.40
2022-12-23T06:27:46.491Z,2.70
2022-12-23T06:30:14.706Z,4.13
2022-12-23T06:32:42.317Z,5.50
2022-12-23T06:35:10.075Z,5.47
2022-12-23T06:37:37.610Z,4.32
2022-12-23T06:40:06.089Z,4.43
2022-12-23T06:42:33.680Z,5.18
2022-12-23T06:45:01.137Z,3.58
2022-12-23T06:47:28.507Z,7.40
2022-12-23T06:49:55.989Z,6.00
2022-12-23T06:52:23.402Z,5.38
2022-12-23T06:54:50.916Z,5.38
2022-12-23T06:57:18.317Z,10.57
2022-12-23T06:59:46.663Z,4.57
2022-12-23T07:02:14.341Z,6.03
2022-12-23T07:04:41.834Z,2.42
2022-12-23T07:07:09.227Z,5.88
2022-12-23T07:09:36.684Z,5.40
2022-12-23T07:12:04.555Z,4.57
2022-12-23T07:14:32.059Z,6.35
2022-12-23T07:16:59.544Z,5.57
2022-12-23T07:19:26.958Z,5.28
2022-12-23T07:21:54.423Z,6.25
2022-12-23T07:24:21.819Z,8.02
2022-12-23T07:26:49.319Z,4.15
2022-12-23T07:29:16.742Z,3.35
2022-12-23T07:31:44.295Z,3.72
2022-12-23T07:34:11.891Z,5.90
2022-12-23T07:36:39.334Z,7.15
2022-12-23T07:39:06.813Z,6.43
2022-12-23T07:41:34.323Z,4.18
2022-12-23T07:44:08.784Z,7.85
2022-12-23T07:46:36.392Z,4.82
2022-12-23T07:49:04.041Z,6.10
2022-12-23T07:51:32.027Z,3.42
2022-12-23T07:53:59.615Z,6.25
2022-12-23T07:56:27.414Z,4.45
2022-12-23T07:58:55.482Z,9.00
2022-12-23T08:01:23.539Z,3.92
2022-12-23T08:03:51.214Z,6.28
2022-12-23T08:06:19.190Z,7.60
2022-12-23T08:08:46.724Z,4.88
2022-12-23T08:11:15.634Z,5.72
2022-12-23T08:13:45.041Z,6.28
2022-12-23T08:16:12.934Z,5.97
2022-12-23T08:18:41.773Z,6.07
2022-12-23T08:21:15.071Z,7.22
2022-12-23T08:23:43.670Z,8.50
2022-12-23T08:26:15.559Z,7.15
2022-12-23T08:28:44.325Z,6.63
2022-12-23T08:31:19.373Z,6.55
2022-12-23T08:33:49.977Z,5.15
2022-12-23T08:36:24.420Z,6.03
2022-12-23T08:38:54.015Z,8.32
2022-12-23T08:41:29.224Z,5.75
2022-12-23T08:43:57.197Z,12.07
2022-12-23T08:46:25.341Z,6.97
2022-12-23T08:48:53.518Z,11.15
2022-12-23T08:51:22.792Z,5.70
2022-12-23T08:53:56.253Z,4.53
2022-12-23T08:56:33.308Z,5.03
2022-12-23T08:59:01.639Z,10.80
2022-12-23T09:01:31.670Z,6.05
2022-12-23T09:04:01.746Z,4.37
2022-12-23T09:06:33.511Z,3.43
2022-12-23T09:09:01.189Z,3.30
2022-12-23T09:11:29.990Z,2.97
2022-12-23T09:14:00.010Z,5.03
2022-12-23T09:16:29.727Z,3.13
2022-12-23T09:19:00.784Z,3.40
2022-12-23T09:21:29.604Z,4.30
2022-12-23T09:23:57.216Z,5.65
2022-12-23T09:26:27.377Z,5.63
2022-12-23T09:28:56.053Z,4.20
2022-12-23T09:31:25.289Z,2.72
2022-12-23T09:33:55.843Z,1.90
2022-12-23T09:36:23.388Z,2.88
2022-12-23T09:38:55.394Z,2.08
2022-12-23T09:41:43.998Z,1.95
2022-12-23T09:44:21.684Z,2.33
2022-12-23T09:46:54.829Z,1.85
2022-12-23T09:49:23.687Z,3.42
2022-12-23T09:51:55.756Z,1.90
2022-12-23T09:54:28.989Z,3.80
2022-12-23T09:57:14.882Z,2.45
2022-12-23T09:59:54.250Z,0.80
2022-12-23T10:02:51.424Z,1.40
2022-12-23T10:05:22.029Z,3.55
2022-12-23T10:07:51.264Z,4.43
2022-12-23T10:10:30.502Z,5.75
2022-12-23T10:13:01.818Z,4.47
2022-12-23T10:15:37.787Z,3.60
2022-12-23T10:18:37.302Z,4.82
2022-12-23T10:21:26.154Z,5.75
2022-12-23T10:23:55.016Z,3.70
2022-12-23T10:26:31.911Z,2.40
2022-12-23T10:29:08.659Z,2.50
2022-12-23T10:32:07.954Z,3.00
2022-12-23T10:35:07.454Z,3.80
2022-12-23T10:37:41.830Z,3.47
2022-12-23T10:40:37.397Z,7.03
2022-12-23T10:43:24.599Z,3.70
2022-12-23T10:46:04.342Z,6.45
2022-12-23T10:48:38.173Z,5.10
2022-12-23T10:51:14.949Z,4.60
2022-12-23T10:53:49.776Z,5.45
2022-12-23T10:56:18.207Z,6.95
2022-12-23T10:58:49.961Z,3.78
2022-12-23T11:01:26.519Z,3.88
2022-12-23T11:04:13.118Z,4.00
2022-12-23T11:06:47.228Z,6.85
2022-12-23T11:09:22.853Z,5.13
2022-12-23T11:12:04.573Z,5.38
2022-12-23T11:14:54.217Z,5.70
2022-12-23T11:17:27.088Z,5.72
2022-12-23T11:20:15.319Z,5.28
2022-12-23T11:22:51.273Z,5.90
2022-12-23T11:25:34.174Z,6.90
2022-12-23T11:28:06.769Z,8.65
2022-12-23T11:31:08.173Z,7.25
2022-12-23T11:33:36.798Z,4.85
2022-12-23T11:36:13.203Z,8.85
2022-12-23T11:39:04.486Z,4.60
2022-12-23T11:44:33.652Z,5.05
2022-12-23T11:47:22.168Z,4.95
2022-12-23T11:49:56.170Z,3.50
2022-12-23T11:52:30.110Z,6.53
2022-12-23T11:55:07.062Z,3.72
2022-12-23T11:57:46.517Z,3.95
2022-12-23T12:00:30.442Z,8.00
2022-12-23T12:03:03.568Z,6.65
2022-12-23T12:05:38.566Z,2.83
2022-12-23T12:08:12.266Z,5.07
2022-12-23T12:10:41.876Z,6.57
2022-12-23T12:13:29.758Z,7.53
2022-12-23T12:16:21.558Z,9.95
2022-12-23T12:18:55.411Z,7.72
2022-12-23T12:21:28.672Z,10.02
2022-12-23T12:24:18.203Z,7.38
2022-12-23T12:26:51.401Z,8.80
2022-12-23T12:29:22.846Z,8.13
2022-12-23T12:31:57.966Z,9.70
2022-12-23T12:34:45.761Z,8.10
2022-12-23T12:37:19.107Z,7.97
2022-12-23T12:39:54.354Z,6.35
2022-12-23T12:42:30.234Z,11.52
2022-12-23T12:45:27.394Z,10.90
2022-12-23T12:48:18.114Z,7.85
2022-12-23T12:53:23.951Z,9.45
2022-12-23T12:56:02.711Z,9.68
2022-12-23T12:58:31.141Z,8.48
2022-12-23T13:01:17.621Z,8.80
2022-12-23T13:04:23.750Z,8.43
2022-12-23T13:07:00.064Z,10.25
2022-12-23T13:09:48.815Z,7.25
2022-12-23T13:12:38.979Z,10.13
2022-12-23T13:15:35.905Z,9.60
2022-12-23T13:18:20.730Z,10.75
2022-12-23T13:21:07.797Z,8.48
2022-12-23T13:23:44.401Z,6.85
2022-12-23T13:26:15.378Z,7.97
2022-12-23T13:29:02.212Z,8.70
2022-12-23T13:31:54.110Z,10.48
2022-12-23T13:34:56.539Z,10.45
2022-12-23T13:37:54.456Z,9.93
2022-12-23T13:40:38.295Z,8.35
2022-12-23T13:43:19.076Z,10.63
2022-12-23T13:45:48.780Z,8.25
2022-12-23T13:49:00.400Z,14.13
2022-12-23T13:51:38.851Z,10.88
2022-12-23T13:55:08.556Z,9.75
2022-12-23T13:57:39.001Z,7.20
2022-12-23T14:00:19.080Z,15.95
2022-12-23T14:03:22.412Z,7.47
2022-12-23T14:05:51.692Z,16.48
2022-12-23T14:08:19.132Z,14.88
2022-12-23T14:11:00.440Z,8.73
2022-12-23T14:13:36.579Z,12.18
2022-12-23T14:16:32.321Z,10.55
2022-12-23T14:19:07.004Z,11.85
2022-12-23T14:22:18.334Z,10.88
2022-12-23T14:25:04.043Z,9.60
2022-12-23T14:27:34.296Z,11.00
2022-12-23T14:30:06.532Z,22.92
2022-12-23T14:32:57.305Z,8.35
2022-12-23T14:35:24.881Z,7.07
2022-12-23T14:38:13.662Z,8.32
2022-12-23T14:40:50.680Z,12.07
2022-12-23T14:43:55.593Z,15.15
2022-12-23T14:46:35.464Z,15.13
2022-12-23T14:49:37.543Z,11.10
2022-12-23T14:51:51.136Z,11.20
2022-12-23T14:54:38.271Z,14.40
2022-12-23T14:57:19.185Z,12.82
2022-12-23T15:02:18.401Z,18.90
2022-12-23T15:04:50.614Z,17.35
2022-12-23T15:07:36.466Z,22.17
2022-12-23T15:10:08.523Z,21.95
2022-12-23T15:12:38.749Z,21.45
2022-12-23T15:15:22.753Z,20.35
2022-12-23T15:18:02.275Z,18.45
2022-12-23T15:20:29.855Z,24.13
2022-12-23T15:23:01.610Z,26.15
2022-12-23T15:25:34.763Z,25.42
2022-12-23T15:28:03.685Z,18.98
2022-12-23T15:30:36.276Z,17.60
2022-12-23T15:33:34.838Z,19.85
2022-12-23T15:35:57.257Z,16.83
2022-12-23T15:38:30.581Z,16.15
2022-12-23T15:41:06.609Z,17.27
2022-12-23T15:43:41.436Z,15.55
2022-12-23T15:46:29.271Z,17.10
2022-12-23T15:48:58.379Z,15.90
2022-12-23T15:54:35.152Z,14.95
2022-12-23T15:57:04.451Z,13.10
2022-12-23T15:59:38.404Z,18.13
2022-12-23T16:05:28.568Z,15.35
2022-12-23T16:08:16.071Z,17.63
2022-12-23T16:11:05.514Z,11.38
2022-12-23T16:13:33.752Z,14.77
2022-12-23T16:16:29.219Z,14.73
2022-12-23T16:18:56.978Z,20.55
2022-12-23T16:21:30.147Z,8.70
2022-12-23T16:23:59.317Z,15.52
2022-12-23T16:26:27.108Z,10.60
2022-12-23T16:29:00.781Z,10.43
2022-12-23T16:31:28.607Z,6.53
2022-12-23T16:34:00.184Z,9.30
2022-12-23T16:36:27.709Z,10.30
2022-12-23T16:39:11.784Z,11.52
2022-12-23T16:41:39.488Z,12.60
2022-12-23T16:44:07.052Z,11.65
2022-12-23T16:46:39.698Z,12.43
2022-12-23T16:49:11.644Z,14.63
2022-12-23T16:51:40.461Z,12.57
2022-12-23T16:54:14.923Z,14.70
2022-12-23T16:56:43.453Z,14.02
2022-12-23T16:59:11.047Z,13.63
2022-12-23T17:01:42.197Z,11.88
2022-12-23T17:04:10.125Z,10.15
2022-12-23T17:06:38.447Z,15.73
2022-12-23T17:09:07.839Z,16.63
2022-12-23T17:11:42.153Z,18.30
2022-12-23T17:14:16.954Z,17.50
2022-12-23T17:16:45.925Z,16.65
2022-12-23T17:19:13.788Z,21.60
2022-12-23T17:21:43.872Z,20.77
2022-12-23T17:24:26.025Z,20.50
2022-12-23T17:26:55.381Z,15.77
2022-12-23T17:29:23.491Z,22.33
2022-12-23T17:31:52.408Z,20.88
2022-12-23T17:34:23.265Z,18.00
2022-12-23T17:36:51.636Z,23.13
2022-12-23T17:39:21.822Z,22.27
2022-12-23T17:41:50.167Z,21.33
2022-12-23T17:44:18.610Z,17.33
2022-12-23T17:46:46.791Z,20.90
2022-12-23T17:49:15.424Z,22.48
2022-12-23T17:51:43.372Z,22.35
2022-12-23T17:54:23.380Z,16.55
2022-12-23T17:56:51.223Z,21.38
2022-12-23T17:59:18.810Z,19.30
2022-12-23T18:01:46.698Z,27.95
2022-12-23T18:04:14.236Z,21.10
2022-12-23T18:06:41.719Z,18.45
2022-12-23T18:09:09.152Z,20.23
2022-12-23T18:11:44.190Z,23.77
2022-12-23T18:14:17.741Z,26.83
2022-12-23T18:16:45.483Z,26.88
2022-12-23T18:19:18.540Z,25.40
2022-12-23T18:21:46.364Z,28.70
2022-12-23T18:24:13.812Z,31.02
2022-12-23T18:26:41.385Z,31.42
2022-12-23T18:29:09.076Z,29.25
2022-12-23T18:31:39.049Z,26.15
2022-12-23T18:34:06.490Z,26.02
2022-12-23T18:36:34.096Z,23.15
2022-12-23T18:39:01.703Z,29.92
2022-12-23T18:41:29.156Z,24.33
2022-12-23T18:43:56.789Z,32.28
2022-12-23T18:46:24.298Z,36.42
2022-12-23T18:48:51.868Z,28.02
2022-12-23T18:51:21.359Z,34.60
2022-12-23T18:53:50.851Z,29.80
2022-12-23T18:56:21.122Z,24.98
2022-12-23T18:58:48.880Z,26.13
2022-12-23T19:01:18.640Z,24.95
2022-12-23T19:03:46.947Z,25.38
2022-12-23T19:06:15.457Z,26.23
2022-12-23T19:08:43.699Z,32.60
2022-12-23T19:11:17.493Z,28.73
2022-12-23T19:13:45.454Z,28.27
2022-12-23T19:16:18.772Z,30.63
2022-12-23T19:18:48.001Z,34.83
2022-12-23T19:21:17.556Z,31.48
2022-12-23T19:23:45.501Z,26.35
2022-12-23T19:26:15.249Z,36.53
2022-12-23T19:28:43.133Z,26.50
2022-12-23T19:31:15.865Z,26.88
2022-12-23T19:33:46.230Z,37.95
2022-12-23T19:36:16.503Z,29.88
2022-12-23T19:38:44.051Z,33.92
2022-12-23T19:41:11.603Z,32.33
2022-12-23T19:43:39.201Z,29.65
2022-12-23T19:46:09.209Z,31.05
2022-12-23T19:48:37.794Z,34.73
2022-12-23T19:51:10.995Z,29.75
2022-12-23T19:53:39.506Z,45.60
2022-12-23T19:56:11.878Z,33.63
2022-12-23T19:58:41.419Z,28.88
2022-12-23T20:01:13.636Z,37.63
2022-12-23T20:03:42.485Z,32.70
2022-12-23T20:06:40.137Z,36.67
2022-12-23T20:09:09.777Z,38.72
2022-12-23T20:11:40.413Z,40.72
2022-12-23T20:14:09.115Z,25.95
2022-12-23T20:16:38.253Z,32.10
2022-12-23T20:19:06.662Z,40.58
2022-12-23T20:21:35.560Z,52.35
2022-12-23T20:24:03.406Z,50.38
2022-12-23T20:26:30.927Z,33.50
2022-12-23T20:28:58.782Z,43.80
2022-12-23T20:31:31.818Z,36.38
2022-12-23T20:34:00.527Z,36.67
2022-12-23T20:36:30.986Z,51.20
2022-12-23T20:38:58.743Z,42.90
2022-12-23T20:41:28.346Z,51.28
2022-12-23T20:44:32.261Z,36.08
2022-12-23T20:46:43.764Z,54.97
2022-12-23T20:49:11.481Z,46.80
2022-12-23T20:51:38.957Z,53.13
2022-12-23T20:54:06.467Z,49.53
2022-12-23T20:56:33.873Z,46.20
2022-12-23T20:59:04.295Z,50.65
2022-12-23T21:01:38.059Z,48.42
2022-12-23T21:04:09.057Z,44.45
2022-12-23T21:06:36.793Z,46.67
2022-12-23T21:09:06.761Z,48.60
2022-12-23T21:11:36.840Z,29.48
2022-12-23T21:14:07.185Z,46.93
2022-12-23T21:16:36.983Z,43.95
2022-12-23T21:19:06.700Z,44.97
2022-12-23T21:21:34.216Z,41.78
2022-12-23T21:24:04.279Z,39.20
2022-12-23T21:26:33.939Z,43.95
2022-12-23T21:29:03.869Z,46.83
2022-12-23T21:31:33.760Z,35.38
2022-12-23T21:34:03.017Z,32.90
2022-12-23T21:36:33.194Z,38.08
2022-12-23T21:39:01.320Z,37.63
2022-12-23T21:41:34.063Z,31.83
2022-12-23T21:44:02.238Z,38.72
2022-12-23T21:46:30.233Z,38.03
2022-12-23T21:48:58.785Z,34.97
2022-12-23T21:51:34.997Z,32.13
2022-12-23T21:54:05.462Z,27.80
2022-12-23T21:56:32.999Z,39.20
2022-12-23T21:59:06.107Z,36.22
2022-12-23T22:01:34.161Z,33.05
2022-12-23T22:04:02.199Z,36.03
2022-12-23T22:06:32.606Z,43.75
2022-12-23T22:09:00.325Z,32.03
2022-12-23T22:11:30.948Z,29.38
2022-12-23T22:13:59.781Z,32.53
2022-12-23T22:16:29.511Z,47.10
2022-12-23T22:18:58.675Z,47.88
2022-12-23T22:21:27.908Z,36.83
2022-12-23T22:23:59.074Z,42.83
2022-12-23T22:28:57.708Z,33.40
2022-12-23T22:31:34.669Z,38.72
2022-12-23T22:34:02.876Z,34.08
2022-12-23T22:36:31.971Z,47.47
2022-12-23T22:39:01.218Z,34.60
2022-12-23T22:41:30.024Z,32.35
2022-12-23T22:43:58.400Z,44.15
2022-12-23T22:46:26.793Z,40.72
2022-12-23T22:48:54.920Z,44.97
2022-12-23T22:51:25.945Z,37.90
2022-12-23T22:56:22.962Z,47.55
2022-12-23T22:58:51.092Z,41.42
2022-12-23T23:01:32.037Z,49.50
2022-12-23T23:04:02.192Z,35.13
2022-12-23T23:06:37.488Z,44.08
2022-12-23T23:09:12.363Z,46.40
2022-12-23T23:11:40.312Z,51.25
2022-12-23T23:14:08.150Z,44.35
2022-12-23T23:16:35.889Z,44.42
2022-12-23T23:19:04.573Z,49.17
2022-12-23T23:21:32.692Z,50.83
2022-12-23T23:24:00.227Z,50.15
2022-12-23T23:26:27.772Z,38.85
2022-12-23T23:28:56.291Z,36.17
2022-12-23T23:31:42.328Z,42.95
2022-12-23T23:34:12.447Z,48.65
2022-12-23T23:36:40.366Z,50.10
2022-12-23T23:39:08.542Z,38.45
2022-12-23T23:41:36.045Z,45.25
2022-12-23T23:44:04.069Z,36.78
2022-12-23T23:46:31.781Z,45.22
2022-12-23T23:48:59.485Z,45.40
2022-12-23T23:51:27.025Z,49.80
2022-12-23T23:53:54.507Z,40.80
2022-12-23T23:56:25.887Z,53.28
2022-12-23T23:58:54.568Z,47.50
